sensor_id;sensor_type;location;lat;lon;timestamp;temperature;humidity
78297;DHT22;67555;47.660;19.622;2024-02-14T00:00:38;3.20;70.10
78297;DHT22;67555;47.660;19.622;2024-02-14T00:03:06;3.30;70.10
78297;DHT22;67555;47.660;19.622;2024-02-14T00:05:32;3.30;70.20
78297;DHT22;67555;47.660;19.622;2024-02-14T00:07:58;3.30;70.20
78297;DHT22;67555;47.660;19.622;2024-02-14T00:10:23;3.20;70.30
78297;DHT22;67555;47.660;19.622;2024-02-14T00:12:49;3.20;70.20
78297;DHT22;67555;47.660;19.622;2024-02-14T00:15:15;3.20;70.30
78297;DHT22;67555;47.660;19.622;2024-02-14T00:17:41;3.20;70.20
78297;DHT22;67555;47.660;19.622;2024-02-14T00:20:09;3.20;70.20
78297;DHT22;67555;47.660;19.622;2024-02-14T00:22:37;3.20;70.10
78297;DHT22;67555;47.660;19.622;2024-02-14T00:25:03;3.20;70.00
78297;DHT22;67555;47.660;19.622;2024-02-14T00:27:30;3.20;69.90
78297;DHT22;67555;47.660;19.622;2024-02-14T00:29:56;3.10;70.00
78297;DHT22;67555;47.660;19.622;2024-02-14T00:32:21;3.10;70.20
78297;DHT22;67555;47.660;19.622;2024-02-14T00:34:47;3.10;70.20
78297;DHT22;67555;47.660;19.622;2024-02-14T00:37:14;3.00;70.30
78297;DHT22;67555;47.660;19.622;2024-02-14T00:39:40;2.90;70.50
78297;DHT22;67555;47.660;19.622;2024-02-14T00:42:06;2.80;70.80
78297;DHT22;67555;47.660;19.622;2024-02-14T00:44:31;2.70;71.00
78297;DHT22;67555;47.660;19.622;2024-02-14T00:46:57;2.80;71.10
78297;DHT22;67555;47.660;19.622;2024-02-14T00:49:28;2.90;70.70
78297;DHT22;67555;47.660;19.622;2024-02-14T00:51:53;3.00;70.30
78297;DHT22;67555;47.660;19.622;2024-02-14T00:54:20;3.10;69.90
78297;DHT22;67555;47.660;19.622;2024-02-14T00:56:45;3.20;69.50
78297;DHT22;67555;47.660;19.622;2024-02-14T00:59:11;3.30;69.20
78297;DHT22;67555;47.660;19.622;2024-02-14T01:01:37;3.30;69.10
78297;DHT22;67555;47.660;19.622;2024-02-14T01:04:03;3.20;69.20
78297;DHT22;67555;47.660;19.622;2024-02-14T01:06:33;3.10;69.60
78297;DHT22;67555;47.660;19.622;2024-02-14T01:08:58;3.00;70.10
78297;DHT22;67555;47.660;19.622;2024-02-14T01:11:24;2.90;70.50
78297;DHT22;67555;47.660;19.622;2024-02-14T01:13:50;2.80;70.60
78297;DHT22;67555;47.660;19.622;2024-02-14T01:16:15;2.80;70.60
78297;DHT22;67555;47.660;19.622;2024-02-14T01:18:41;2.80;70.70
78297;DHT22;67555;47.660;19.622;2024-02-14T01:21:08;2.80;70.90
78297;DHT22;67555;47.660;19.622;2024-02-14T01:23:35;2.70;71.20
78297;DHT22;67555;47.660;19.622;2024-02-14T01:26:01;2.70;71.30
78297;DHT22;67555;47.660;19.622;2024-02-14T01:28:27;2.70;71.40
78297;DHT22;67555;47.660;19.622;2024-02-14T01:30:53;2.50;71.60
78297;DHT22;67555;47.660;19.622;2024-02-14T01:33:19;2.50;71.80
78297;DHT22;67555;47.660;19.622;2024-02-14T01:35:44;2.40;72.10
78297;DHT22;67555;47.660;19.622;2024-02-14T01:38:10;2.40;72.30
78297;DHT22;67555;47.660;19.622;2024-02-14T01:40:38;2.50;72.20
78297;DHT22;67555;47.660;19.622;2024-02-14T01:43:04;2.50;72.00
78297;DHT22;67555;47.660;19.622;2024-02-14T01:45:29;2.50;72.00
78297;DHT22;67555;47.660;19.622;2024-02-14T01:47:55;2.50;72.00
78297;DHT22;67555;47.660;19.622;2024-02-14T01:50:22;2.50;71.80
78297;DHT22;67555;47.660;19.622;2024-02-14T01:52:55;2.70;71.40
78297;DHT22;67555;47.660;19.622;2024-02-14T01:55:22;2.70;71.20
78297;DHT22;67555;47.660;19.622;2024-02-14T01:57:47;2.70;71.10
78297;DHT22;67555;47.660;19.622;2024-02-14T02:00:14;2.80;70.90
78297;DHT22;67555;47.660;19.622;2024-02-14T02:02:43;2.90;70.60
78297;DHT22;67555;47.660;19.622;2024-02-14T02:05:09;2.90;70.40
78297;DHT22;67555;47.660;19.622;2024-02-14T02:07:35;2.70;70.50
78297;DHT22;67555;47.660;19.622;2024-02-14T02:10:05;2.60;70.90
78297;DHT22;67555;47.660;19.622;2024-02-14T02:12:31;2.50;71.10
78297;DHT22;67555;47.660;19.622;2024-02-14T02:14:58;2.50;71.20
78297;DHT22;67555;47.660;19.622;2024-02-14T02:17:24;2.60;71.20
78297;DHT22;67555;47.660;19.622;2024-02-14T02:19:49;2.70;70.90
78297;DHT22;67555;47.660;19.622;2024-02-14T02:22:15;2.80;70.70
78297;DHT22;67555;47.660;19.622;2024-02-14T02:24:41;2.90;70.40
78297;DHT22;67555;47.660;19.622;2024-02-14T02:27:06;3.00;70.10
78297;DHT22;67555;47.660;19.622;2024-02-14T02:29:32;3.00;69.90
78297;DHT22;67555;47.660;19.622;2024-02-14T02:32:00;3.10;69.60
78297;DHT22;67555;47.660;19.622;2024-02-14T02:34:25;3.10;69.50
78297;DHT22;67555;47.660;19.622;2024-02-14T02:36:51;3.10;69.40
78297;DHT22;67555;47.660;19.622;2024-02-14T02:39:17;3.10;69.20
78297;DHT22;67555;47.660;19.622;2024-02-14T02:41:42;3.10;69.20
78297;DHT22;67555;47.660;19.622;2024-02-14T02:44:13;3.00;69.10
78297;DHT22;67555;47.660;19.622;2024-02-14T02:46:38;3.10;69.00
78297;DHT22;67555;47.660;19.622;2024-02-14T02:49:04;3.10;69.10
78297;DHT22;67555;47.660;19.622;2024-02-14T02:51:29;3.00;69.10
78297;DHT22;67555;47.660;19.622;2024-02-14T02:53:55;2.90;69.30
78297;DHT22;67555;47.660;19.622;2024-02-14T02:56:21;3.00;69.30
78297;DHT22;67555;47.660;19.622;2024-02-14T02:58:47;2.90;69.30
78297;DHT22;67555;47.660;19.622;2024-02-14T03:01:14;2.90;69.50
78297;DHT22;67555;47.660;19.622;2024-02-14T03:03:40;2.90;69.50
78297;DHT22;67555;47.660;19.622;2024-02-14T03:06:06;2.90;69.40
78297;DHT22;67555;47.660;19.622;2024-02-14T03:08:33;2.90;69.50
78297;DHT22;67555;47.660;19.622;2024-02-14T03:11:06;3.00;69.40
78297;DHT22;67555;47.660;19.622;2024-02-14T03:13:32;3.00;69.30
78297;DHT22;67555;47.660;19.622;2024-02-14T03:15:58;3.00;69.30
78297;DHT22;67555;47.660;19.622;2024-02-14T03:18:24;3.00;69.20
78297;DHT22;67555;47.660;19.622;2024-02-14T03:20:51;3.00;69.10
78297;DHT22;67555;47.660;19.622;2024-02-14T03:23:19;2.90;69.20
78297;DHT22;67555;47.660;19.622;2024-02-14T03:25:45;2.90;69.30
78297;DHT22;67555;47.660;19.622;2024-02-14T03:28:10;2.90;69.20
78297;DHT22;67555;47.660;19.622;2024-02-14T03:30:38;2.80;69.20
78297;DHT22;67555;47.660;19.622;2024-02-14T03:33:05;2.70;69.40
78297;DHT22;67555;47.660;19.622;2024-02-14T03:35:31;2.50;69.90
78297;DHT22;67555;47.660;19.622;2024-02-14T03:37:59;2.50;70.00
78297;DHT22;67555;47.660;19.622;2024-02-14T03:40:25;2.30;70.30
78297;DHT22;67555;47.660;19.622;2024-02-14T03:42:51;2.30;70.60
78297;DHT22;67555;47.660;19.622;2024-02-14T03:45:17;2.20;70.70
78297;DHT22;67555;47.660;19.622;2024-02-14T03:47:42;2.10;71.00
78297;DHT22;67555;47.660;19.622;2024-02-14T03:50:08;2.10;71.10
78297;DHT22;67555;47.660;19.622;2024-02-14T03:52:34;2.20;71.10
78297;DHT22;67555;47.660;19.622;2024-02-14T03:55:00;2.20;71.00
78297;DHT22;67555;47.660;19.622;2024-02-14T03:57:27;2.30;70.70
78297;DHT22;67555;47.660;19.622;2024-02-14T04:00:00;2.30;70.50
78297;DHT22;67555;47.660;19.622;2024-02-14T04:02:28;2.30;70.50
78297;DHT22;67555;47.660;19.622;2024-02-14T04:04:55;2.20;70.60
78297;DHT22;67555;47.660;19.622;2024-02-14T04:07:20;2.20;70.70
78297;DHT22;67555;47.660;19.622;2024-02-14T04:09:47;2.20;70.70
78297;DHT22;67555;47.660;19.622;2024-02-14T04:12:13;2.30;70.50
78297;DHT22;67555;47.660;19.622;2024-02-14T04:14:39;2.30;70.30
78297;DHT22;67555;47.660;19.622;2024-02-14T04:17:05;2.30;70.20
78297;DHT22;67555;47.660;19.622;2024-02-14T04:19:33;2.40;70.00
78297;DHT22;67555;47.660;19.622;2024-02-14T04:21:59;2.40;69.90
78297;DHT22;67555;47.660;19.622;2024-02-14T04:24:25;2.40;69.80
78297;DHT22;67555;47.660;19.622;2024-02-14T04:26:52;2.30;69.90
78297;DHT22;67555;47.660;19.622;2024-02-14T04:29:18;2.30;70.10
78297;DHT22;67555;47.660;19.622;2024-02-14T04:31:44;2.30;70.10
78297;DHT22;67555;47.660;19.622;2024-02-14T04:34:09;2.30;70.00
78297;DHT22;67555;47.660;19.622;2024-02-14T04:36:36;2.30;69.90
78297;DHT22;67555;47.660;19.622;2024-02-14T04:39:02;2.40;69.80
78297;DHT22;67555;47.660;19.622;2024-02-14T04:41:28;2.30;69.90
78297;DHT22;67555;47.660;19.622;2024-02-14T04:43:54;2.30;70.00
78297;DHT22;67555;47.660;19.622;2024-02-14T04:46:20;2.20;70.40
78297;DHT22;67555;47.660;19.622;2024-02-14T04:48:47;2.10;70.60
78297;DHT22;67555;47.660;19.622;2024-02-14T04:51:13;2.20;70.50
78297;DHT22;67555;47.660;19.622;2024-02-14T04:53:39;2.20;70.40
78297;DHT22;67555;47.660;19.622;2024-02-14T04:56:05;2.30;70.20
78297;DHT22;67555;47.660;19.622;2024-02-14T04:58:30;2.30;70.10
78297;DHT22;67555;47.660;19.622;2024-02-14T05:00:56;2.20;70.00
78297;DHT22;67555;47.660;19.622;2024-02-14T05:03:22;2.10;70.20
78297;DHT22;67555;47.660;19.622;2024-02-14T05:05:49;2.10;70.40
78297;DHT22;67555;47.660;19.622;2024-02-14T05:08:15;2.10;70.40
78297;DHT22;67555;47.660;19.622;2024-02-14T05:10:41;2.00;70.50
78297;DHT22;67555;47.660;19.622;2024-02-14T05:13:07;2.00;70.60
78297;DHT22;67555;47.660;19.622;2024-02-14T05:15:32;2.10;70.50
78297;DHT22;67555;47.660;19.622;2024-02-14T05:18:00;2.10;70.50
78297;DHT22;67555;47.660;19.622;2024-02-14T05:20:26;2.00;70.60
78297;DHT22;67555;47.660;19.622;2024-02-14T05:22:51;1.80;71.10
78297;DHT22;67555;47.660;19.622;2024-02-14T05:25:18;1.80;71.10
78297;DHT22;67555;47.660;19.622;2024-02-14T05:27:44;1.70;71.20
78297;DHT22;67555;47.660;19.622;2024-02-14T05:30:12;1.70;71.20
78297;DHT22;67555;47.660;19.622;2024-02-14T05:32:38;1.60;71.20
78297;DHT22;67555;47.660;19.622;2024-02-14T05:35:05;1.50;71.40
78297;DHT22;67555;47.660;19.622;2024-02-14T05:37:31;1.40;71.80
78297;DHT22;67555;47.660;19.622;2024-02-14T05:39:57;1.20;72.20
78297;DHT22;67555;47.660;19.622;2024-02-14T05:42:23;1.20;72.50
78297;DHT22;67555;47.660;19.622;2024-02-14T05:44:50;1.20;72.40
78297;DHT22;67555;47.660;19.622;2024-02-14T05:47:17;1.20;72.50
78297;DHT22;67555;47.660;19.622;2024-02-14T05:49:44;1.20;72.60
78297;DHT22;67555;47.660;19.622;2024-02-14T05:52:10;1.10;72.70
78297;DHT22;67555;47.660;19.622;2024-02-14T05:54:35;1.00;72.70
78297;DHT22;67555;47.660;19.622;2024-02-14T05:57:01;1.00;73.20
78297;DHT22;67555;47.660;19.622;2024-02-14T05:59:30;0.80;73.60
78297;DHT22;67555;47.660;19.622;2024-02-14T06:01:56;0.80;73.80
78297;DHT22;67555;47.660;19.622;2024-02-14T06:04:22;0.80;73.80
78297;DHT22;67555;47.660;19.622;2024-02-14T06:06:48;0.80;73.90
78297;DHT22;67555;47.660;19.622;2024-02-14T06:09:14;0.80;74.00
78297;DHT22;67555;47.660;19.622;2024-02-14T06:11:40;0.80;74.10
78297;DHT22;67555;47.660;19.622;2024-02-14T06:14:06;0.80;74.10
78297;DHT22;67555;47.660;19.622;2024-02-14T06:16:33;1.00;74.00
78297;DHT22;67555;47.660;19.622;2024-02-14T06:18:59;1.00;73.80
78297;DHT22;67555;47.660;19.622;2024-02-14T06:21:24;1.00;73.60
78297;DHT22;67555;47.660;19.622;2024-02-14T06:23:51;1.10;73.70
78297;DHT22;67555;47.660;19.622;2024-02-14T06:26:17;1.20;73.70
78297;DHT22;67555;47.660;19.622;2024-02-14T06:28:44;1.40;73.40
78297;DHT22;67555;47.660;19.622;2024-02-14T06:31:10;1.40;73.20
78297;DHT22;67555;47.660;19.622;2024-02-14T06:33:36;1.50;73.00
78297;DHT22;67555;47.660;19.622;2024-02-14T06:36:02;1.70;72.70
78297;DHT22;67555;47.660;19.622;2024-02-14T06:38:28;1.80;72.50
78297;DHT22;67555;47.660;19.622;2024-02-14T06:40:53;1.80;72.40
78297;DHT22;67555;47.660;19.622;2024-02-14T06:43:19;1.80;72.50
78297;DHT22;67555;47.660;19.622;2024-02-14T06:45:45;1.90;72.50
78297;DHT22;67555;47.660;19.622;2024-02-14T06:48:11;1.90;72.40
78297;DHT22;67555;47.660;19.622;2024-02-14T06:50:37;2.10;72.20
78297;DHT22;67555;47.660;19.622;2024-02-14T06:53:03;2.30;71.90
78297;DHT22;67555;47.660;19.622;2024-02-14T06:55:29;2.50;71.40
78297;DHT22;67555;47.660;19.622;2024-02-14T06:57:58;2.50;71.20
78297;DHT22;67555;47.660;19.622;2024-02-14T07:00:24;2.70;71.00
78297;DHT22;67555;47.660;19.622;2024-02-14T07:02:50;2.80;70.80
78297;DHT22;67555;47.660;19.622;2024-02-14T07:05:16;2.90;70.60
78297;DHT22;67555;47.660;19.622;2024-02-14T07:07:41;2.80;70.50
78297;DHT22;67555;47.660;19.622;2024-02-14T07:10:08;2.80;70.80
78297;DHT22;67555;47.660;19.622;2024-02-14T07:12:34;2.70;71.20
78297;DHT22;67555;47.660;19.622;2024-02-14T07:15:02;2.80;71.30
78297;DHT22;67555;47.660;19.622;2024-02-14T07:17:29;2.90;71.20
78297;DHT22;67555;47.660;19.622;2024-02-14T07:19:55;3.00;71.00
78297;DHT22;67555;47.660;19.622;2024-02-14T07:22:21;3.10;70.80
78297;DHT22;67555;47.660;19.622;2024-02-14T07:24:46;3.20;70.70
78297;DHT22;67555;47.660;19.622;2024-02-14T07:27:13;3.20;70.50
78297;DHT22;67555;47.660;19.622;2024-02-14T07:29:39;3.30;70.40
78297;DHT22;67555;47.660;19.622;2024-02-14T07:32:05;3.50;70.10
78297;DHT22;67555;47.660;19.622;2024-02-14T07:34:32;3.60;69.90
78297;DHT22;67555;47.660;19.622;2024-02-14T07:36:57;3.70;69.60
78297;DHT22;67555;47.660;19.622;2024-02-14T07:39:23;3.70;69.60
78297;DHT22;67555;47.660;19.622;2024-02-14T07:41:49;3.80;69.50
78297;DHT22;67555;47.660;19.622;2024-02-14T07:44:15;3.90;69.40
78297;DHT22;67555;47.660;19.622;2024-02-14T07:46:40;3.90;69.20
78297;DHT22;67555;47.660;19.622;2024-02-14T07:49:06;3.90;69.00
78297;DHT22;67555;47.660;19.622;2024-02-14T07:51:32;3.90;69.00
78297;DHT22;67555;47.660;19.622;2024-02-14T07:54:03;3.90;69.00
78297;DHT22;67555;47.660;19.622;2024-02-14T07:56:29;3.90;69.30
78297;DHT22;67555;47.660;19.622;2024-02-14T07:58:55;3.80;69.50
78297;DHT22;67555;47.660;19.622;2024-02-14T08:01:21;3.70;69.90
78297;DHT22;67555;47.660;19.622;2024-02-14T08:03:46;3.60;70.20
78297;DHT22;67555;47.660;19.622;2024-02-14T08:06:13;3.70;70.40
78297;DHT22;67555;47.660;19.622;2024-02-14T08:08:39;3.70;70.40
78297;DHT22;67555;47.660;19.622;2024-02-14T08:11:04;3.80;70.60
78297;DHT22;67555;47.660;19.622;2024-02-14T08:13:31;3.90;70.70
78297;DHT22;67555;47.660;19.622;2024-02-14T08:15:57;4.00;70.70
78297;DHT22;67555;47.660;19.622;2024-02-14T08:18:24;4.10;70.70
78297;DHT22;67555;47.660;19.622;2024-02-14T08:20:50;4.10;70.90
78297;DHT22;67555;47.660;19.622;2024-02-14T08:23:15;4.20;71.00
78297;DHT22;67555;47.660;19.622;2024-02-14T08:25:42;4.30;71.00
78297;DHT22;67555;47.660;19.622;2024-02-14T08:28:08;4.30;71.00
78297;DHT22;67555;47.660;19.622;2024-02-14T08:30:34;4.40;71.00
78297;DHT22;67555;47.660;19.622;2024-02-14T08:33:00;4.50;70.90
78297;DHT22;67555;47.660;19.622;2024-02-14T08:35:26;4.60;70.80
78297;DHT22;67555;47.660;19.622;2024-02-14T08:37:52;4.70;70.70
78297;DHT22;67555;47.660;19.622;2024-02-14T08:40:17;4.90;70.60
78297;DHT22;67555;47.660;19.622;2024-02-14T08:42:43;5.00;70.30
78297;DHT22;67555;47.660;19.622;2024-02-14T08:45:09;5.30;69.90
78297;DHT22;67555;47.660;19.622;2024-02-14T08:47:36;5.50;69.60
78297;DHT22;67555;47.660;19.622;2024-02-14T08:50:03;5.60;69.30
78297;DHT22;67555;47.660;19.622;2024-02-14T08:52:29;5.70;69.30
78297;DHT22;67555;47.660;19.622;2024-02-14T08:54:55;5.70;69.60
78297;DHT22;67555;47.660;19.622;2024-02-14T08:57:21;5.80;69.70
78297;DHT22;67555;47.660;19.622;2024-02-14T08:59:48;5.90;69.80
78297;DHT22;67555;47.660;19.622;2024-02-14T09:02:14;6.00;69.60
78297;DHT22;67555;47.660;19.622;2024-02-14T09:04:41;6.20;69.30
78297;DHT22;67555;47.660;19.622;2024-02-14T09:07:07;6.30;68.90
78297;DHT22;67555;47.660;19.622;2024-02-14T09:09:33;6.40;68.40
78297;DHT22;67555;47.660;19.622;2024-02-14T09:11:59;6.50;68.30
78297;DHT22;67555;47.660;19.622;2024-02-14T09:14:31;6.50;68.00
78297;DHT22;67555;47.660;19.622;2024-02-14T09:16:57;6.70;68.00
78297;DHT22;67555;47.660;19.622;2024-02-14T09:19:23;6.90;67.70
78297;DHT22;67555;47.660;19.622;2024-02-14T09:21:50;7.20;66.50
78297;DHT22;67555;47.660;19.622;2024-02-14T09:24:16;7.40;65.80
78297;DHT22;67555;47.660;19.622;2024-02-14T09:26:42;7.50;65.20
78297;DHT22;67555;47.660;19.622;2024-02-14T09:29:08;7.80;64.90
78297;DHT22;67555;47.660;19.622;2024-02-14T09:31:36;8.00;64.30
78297;DHT22;67555;47.660;19.622;2024-02-14T09:34:02;8.10;63.80
78297;DHT22;67555;47.660;19.622;2024-02-14T09:36:28;8.30;63.40
78297;DHT22;67555;47.660;19.622;2024-02-14T09:38:54;8.30;62.80
78297;DHT22;67555;47.660;19.622;2024-02-14T09:41:37;8.40;62.50
78297;DHT22;67555;47.660;19.622;2024-02-14T09:44:04;8.60;62.10
78297;DHT22;67555;47.660;19.622;2024-02-14T09:46:30;8.60;61.70
78297;DHT22;67555;47.660;19.622;2024-02-14T09:48:56;8.80;61.40
78297;DHT22;67555;47.660;19.622;2024-02-14T09:51:25;8.90;60.60
78297;DHT22;67555;47.660;19.622;2024-02-14T09:53:51;8.90;60.30
78297;DHT22;67555;47.660;19.622;2024-02-14T09:56:21;9.00;59.60
78297;DHT22;67555;47.660;19.622;2024-02-14T09:58:49;9.00;59.20
78297;DHT22;67555;47.660;19.622;2024-02-14T10:01:21;9.00;57.70
78297;DHT22;67555;47.660;19.622;2024-02-14T10:03:53;9.00;58.20
78297;DHT22;67555;47.660;19.622;2024-02-14T10:06:19;9.10;58.50
78297;DHT22;67555;47.660;19.622;2024-02-14T10:08:48;9.20;58.30
78297;DHT22;67555;47.660;19.622;2024-02-14T10:11:17;9.40;57.90
78297;DHT22;67555;47.660;19.622;2024-02-14T10:13:49;9.40;57.70
78297;DHT22;67555;47.660;19.622;2024-02-14T10:16:16;9.40;57.30
78297;DHT22;67555;47.660;19.622;2024-02-14T10:18:45;9.40;57.20
78297;DHT22;67555;47.660;19.622;2024-02-14T10:21:15;9.50;57.20
78297;DHT22;67555;47.660;19.622;2024-02-14T10:23:45;9.60;57.00
78297;DHT22;67555;47.660;19.622;2024-02-14T10:26:15;9.50;56.00
78297;DHT22;67555;47.660;19.622;2024-02-14T10:28:45;9.40;55.70
78297;DHT22;67555;47.660;19.622;2024-02-14T10:31:11;9.40;56.20
78297;DHT22;67555;47.660;19.622;2024-02-14T10:33:38;9.40;55.60
78297;DHT22;67555;47.660;19.622;2024-02-14T10:36:07;9.40;55.30
78297;DHT22;67555;47.660;19.622;2024-02-14T10:38:34;9.40;55.00
78297;DHT22;67555;47.660;19.622;2024-02-14T10:41:00;9.40;55.50
78297;DHT22;67555;47.660;19.622;2024-02-14T10:43:27;9.50;55.40
78297;DHT22;67555;47.660;19.622;2024-02-14T10:45:53;9.60;55.30
78297;DHT22;67555;47.660;19.622;2024-02-14T10:48:22;9.70;55.10
78297;DHT22;67555;47.660;19.622;2024-02-14T10:50:51;9.80;54.90
78297;DHT22;67555;47.660;19.622;2024-02-14T10:53:18;9.90;54.60
78297;DHT22;67555;47.660;19.622;2024-02-14T10:55:47;9.90;54.10
78297;DHT22;67555;47.660;19.622;2024-02-14T10:58:15;9.80;53.00
78297;DHT22;67555;47.660;19.622;2024-02-14T11:00:42;9.70;52.20
78297;DHT22;67555;47.660;19.622;2024-02-14T11:03:08;9.60;53.20
78297;DHT22;67555;47.660;19.622;2024-02-14T11:05:45;9.70;53.20
78297;DHT22;67555;47.660;19.622;2024-02-14T11:08:20;9.90;53.30
78297;DHT22;67555;47.660;19.622;2024-02-14T11:10:55;10.00;52.70
78297;DHT22;67555;47.660;19.622;2024-02-14T11:13:28;10.00;52.40
78297;DHT22;67555;47.660;19.622;2024-02-14T11:16:00;10.00;51.70
78297;DHT22;67555;47.660;19.622;2024-02-14T11:18:29;10.00;50.50
78297;DHT22;67555;47.660;19.622;2024-02-14T11:21:03;9.80;51.20
78297;DHT22;67555;47.660;19.622;2024-02-14T11:23:30;10.00;51.60
78297;DHT22;67555;47.660;19.622;2024-02-14T11:26:00;10.10;51.50
78297;DHT22;67555;47.660;19.622;2024-02-14T11:28:28;10.20;51.40
78297;DHT22;67555;47.660;19.622;2024-02-14T11:31:01;10.40;51.40
78297;DHT22;67555;47.660;19.622;2024-02-14T11:33:29;10.40;50.60
78297;DHT22;67555;47.660;19.622;2024-02-14T11:35:55;10.20;48.70
78297;DHT22;67555;47.660;19.622;2024-02-14T11:38:23;10.20;49.70
78297;DHT22;67555;47.660;19.622;2024-02-14T11:40:54;10.20;49.80
78297;DHT22;67555;47.660;19.622;2024-02-14T11:43:22;10.40;49.90
78297;DHT22;67555;47.660;19.622;2024-02-14T11:45:49;10.40;47.40
78297;DHT22;67555;47.660;19.622;2024-02-14T11:48:21;10.30;48.20
78297;DHT22;67555;47.660;19.622;2024-02-14T11:50:49;10.30;48.00
78297;DHT22;67555;47.660;19.622;2024-02-14T11:53:16;10.30;47.30
78297;DHT22;67555;47.660;19.622;2024-02-14T11:55:43;10.30;47.80
78297;DHT22;67555;47.660;19.622;2024-02-14T11:58:10;10.30;47.20
78297;DHT22;67555;47.660;19.622;2024-02-14T12:00:46;10.30;47.80
78297;DHT22;67555;47.660;19.622;2024-02-14T12:03:16;10.40;47.90
78297;DHT22;67555;47.660;19.622;2024-02-14T12:05:42;10.50;47.80
78297;DHT22;67555;47.660;19.622;2024-02-14T12:08:09;10.50;48.10
78297;DHT22;67555;47.660;19.622;2024-02-14T12:10:36;10.60;47.40
78297;DHT22;67555;47.660;19.622;2024-02-14T12:13:13;10.50;47.20
78297;DHT22;67555;47.660;19.622;2024-02-14T12:15:45;10.50;48.00
78297;DHT22;67555;47.660;19.622;2024-02-14T12:18:12;10.60;48.00
78297;DHT22;67555;47.660;19.622;2024-02-14T12:20:39;10.70;48.20
78297;DHT22;67555;47.660;19.622;2024-02-14T12:23:05;10.80;47.70
78297;DHT22;67555;47.660;19.622;2024-02-14T12:25:31;10.70;46.70
78297;DHT22;67555;47.660;19.622;2024-02-14T12:27:58;10.60;46.90
78297;DHT22;67555;47.660;19.622;2024-02-14T12:30:42;10.50;47.10
78297;DHT22;67555;47.660;19.622;2024-02-14T12:33:13;10.70;47.90
78297;DHT22;67555;47.660;19.622;2024-02-14T12:35:43;11.00;47.50
78297;DHT22;67555;47.660;19.622;2024-02-14T12:38:10;11.10;47.10
78297;DHT22;67555;47.660;19.622;2024-02-14T12:40:36;11.50;47.10
78297;DHT22;67555;47.660;19.622;2024-02-14T12:43:02;11.70;46.80
78297;DHT22;67555;47.660;19.622;2024-02-14T12:45:29;12.20;46.30
78297;DHT22;67555;47.660;19.622;2024-02-14T12:47:54;12.50;45.70
78297;DHT22;67555;47.660;19.622;2024-02-14T12:50:20;12.50;43.80
78297;DHT22;67555;47.660;19.622;2024-02-14T12:52:46;12.50;43.50
78297;DHT22;67555;47.660;19.622;2024-02-14T12:55:14;12.50;42.90
78297;DHT22;67555;47.660;19.622;2024-02-14T12:57:40;12.50;43.10
78297;DHT22;67555;47.660;19.622;2024-02-14T13:00:06;12.70;42.90
78297;DHT22;67555;47.660;19.622;2024-02-14T13:02:34;12.80;42.70
78297;DHT22;67555;47.660;19.622;2024-02-14T13:05:00;13.00;42.90
78297;DHT22;67555;47.660;19.622;2024-02-14T13:07:28;13.30;42.60
78297;DHT22;67555;47.660;19.622;2024-02-14T13:09:54;13.30;41.20
78297;DHT22;67555;47.660;19.622;2024-02-14T13:12:20;13.20;40.90
78297;DHT22;67555;47.660;19.622;2024-02-14T13:14:46;13.10;40.60
78297;DHT22;67555;47.660;19.622;2024-02-14T13:17:12;13.30;41.00
78297;DHT22;67555;47.660;19.622;2024-02-14T13:19:39;13.30;41.10
78297;DHT22;67555;47.660;19.622;2024-02-14T13:22:05;13.50;40.80
78297;DHT22;67555;47.660;19.622;2024-02-14T13:24:31;13.50;40.70
78297;DHT22;67555;47.660;19.622;2024-02-14T13:26:57;13.40;40.20
78297;DHT22;67555;47.660;19.622;2024-02-14T13:29:25;13.10;40.50
78297;DHT22;67555;47.660;19.622;2024-02-14T13:31:51;12.90;40.50
78297;DHT22;67555;47.660;19.622;2024-02-14T13:34:17;12.60;40.80
78297;DHT22;67555;47.660;19.622;2024-02-14T13:36:47;12.50;41.50
78297;DHT22;67555;47.660;19.622;2024-02-14T13:39:13;12.40;41.70
78297;DHT22;67555;47.660;19.622;2024-02-14T13:41:39;12.20;41.70
78297;DHT22;67555;47.660;19.622;2024-02-14T13:44:08;11.90;42.20
78297;DHT22;67555;47.660;19.622;2024-02-14T13:46:35;11.70;42.80
78297;DHT22;67555;47.660;19.622;2024-02-14T13:49:00;11.50;42.50
78297;DHT22;67555;47.660;19.622;2024-02-14T13:51:26;11.30;43.00
78297;DHT22;67555;47.660;19.622;2024-02-14T13:53:55;11.10;43.20
78297;DHT22;67555;47.660;19.622;2024-02-14T13:56:21;11.00;43.80
78297;DHT22;67555;47.660;19.622;2024-02-14T13:58:48;10.90;43.90
78297;DHT22;67555;47.660;19.622;2024-02-14T14:01:17;10.90;44.50
78297;DHT22;67555;47.660;19.622;2024-02-14T14:03:43;11.00;44.40
78297;DHT22;67555;47.660;19.622;2024-02-14T14:06:09;11.10;44.10
78297;DHT22;67555;47.660;19.622;2024-02-14T14:08:35;11.00;43.80
78297;DHT22;67555;47.660;19.622;2024-02-14T14:11:02;11.00;43.90
78297;DHT22;67555;47.660;19.622;2024-02-14T14:13:29;11.00;44.30
78297;DHT22;67555;47.660;19.622;2024-02-14T14:16:00;10.90;44.80
78297;DHT22;67555;47.660;19.622;2024-02-14T14:18:25;10.90;45.00
78297;DHT22;67555;47.660;19.622;2024-02-14T14:20:51;10.90;45.00
78297;DHT22;67555;47.660;19.622;2024-02-14T14:23:18;10.90;44.80
78297;DHT22;67555;47.660;19.622;2024-02-14T14:25:44;10.80;44.70
78297;DHT22;67555;47.660;19.622;2024-02-14T14:28:10;10.80;45.10
78297;DHT22;67555;47.660;19.622;2024-02-14T14:30:36;10.80;45.30
78297;DHT22;67555;47.660;19.622;2024-02-14T14:33:05;10.80;45.20
78297;DHT22;67555;47.660;19.622;2024-02-14T14:35:31;10.80;45.10
78297;DHT22;67555;47.660;19.622;2024-02-14T14:38:04;10.80;45.20
78297;DHT22;67555;47.660;19.622;2024-02-14T14:40:30;10.80;45.10
78297;DHT22;67555;47.660;19.622;2024-02-14T14:42:56;10.70;45.00
78297;DHT22;67555;47.660;19.622;2024-02-14T14:45:22;10.60;45.20
78297;DHT22;67555;47.660;19.622;2024-02-14T14:47:48;10.50;45.50
78297;DHT22;67555;47.660;19.622;2024-02-14T14:50:14;10.50;45.50
78297;DHT22;67555;47.660;19.622;2024-02-14T14:52:41;10.50;45.70
78297;DHT22;67555;47.660;19.622;2024-02-14T14:55:09;10.50;46.00
78297;DHT22;67555;47.660;19.622;2024-02-14T14:57:35;10.50;46.20
78297;DHT22;67555;47.660;19.622;2024-02-14T15:00:10;10.50;46.50
78297;DHT22;67555;47.660;19.622;2024-02-14T15:02:45;10.50;46.60
78297;DHT22;67555;47.660;19.622;2024-02-14T15:05:12;10.40;46.80
78297;DHT22;67555;47.660;19.622;2024-02-14T15:07:39;10.40;47.00
78297;DHT22;67555;47.660;19.622;2024-02-14T15:10:05;10.40;47.20
78297;DHT22;67555;47.660;19.622;2024-02-14T15:12:33;10.50;47.30
78297;DHT22;67555;47.660;19.622;2024-02-14T15:15:05;10.60;47.30
78297;DHT22;67555;47.660;19.622;2024-02-14T15:17:30;10.60;47.30
78297;DHT22;67555;47.660;19.622;2024-02-14T15:19:57;10.60;47.30
78297;DHT22;67555;47.660;19.622;2024-02-14T15:22:22;10.60;47.40
78297;DHT22;67555;47.660;19.622;2024-02-14T15:24:50;10.70;47.40